Time;durP1;ratioP1;P1;durP2;ratioP2;P2;SDS_P1;SDS_P2;PMS_P1;PMS_P2;Temp;Humidity;BMP_temperature;BMP_pressure;BME280_temperature;BME280_humidity;BME280_pressure;Samples;Min_cycle;Max_cycle;Signal;HPM_P1;HPM_P2
2022/08/24 00:01:50;;;;;;;;;2.67;1.33;;;;;;;;5062873;28;61960;-74
2022/08/24 00:04:16;;;;;;;;;1.67;1.67;;;;;;;;5062611;28;61804;-74
2022/08/24 00:06:41;;;;;;;;;1.67;1.67;;;;;;;;5060690;28;65321;-74
2022/08/24 00:09:06;;;;;;;;;3.00;1.33;;;;;;;;5062808;28;61724;-74
2022/08/24 00:11:31;;;;;;;;;3.33;2.00;;;;;;;;5062808;28;61716;-74
2022/08/24 00:13:57;;;;;;;;;2.67;2.00;;;;;;;;5062797;28;61861;-74
2022/08/24 00:16:22;;;;;;;;;3.00;1.00;;;;;;;;5060597;28;64698;-74
2022/08/24 00:18:47;;;;;;;;;3.00;3.00;;;;;;;;5062521;28;61823;-74
2022/08/24 00:21:13;;;;;;;;;2.00;2.00;;;;;;;;5062294;28;61753;-74
2022/08/24 00:23:39;;;;;;;;;3.00;3.00;;;;;;;;5061288;28;61838;-74
2022/08/24 00:26:04;;;;;;;;;4.00;2.33;;;;;;;;5062098;28;61733;-74
2022/08/24 00:28:29;;;;;;;;;2.33;2.33;;;;;;;;5061107;28;62159;-74
2022/08/24 00:30:55;;;;;;;;;5.00;2.00;;;;;;;;5062725;28;62098;-74
2022/08/24 00:33:20;;;;;;;;;3.67;2.67;;;;;;;;5061478;28;62116;-74
2022/08/24 00:35:45;;;;;;;;;3.00;2.00;;;;;;;;5061736;28;62955;-74
2022/08/24 00:38:10;;;;;;;;;2.67;1.67;;;;;;;;5062052;28;61753;-74
2022/08/24 00:40:37;;;;;;;;;2.00;2.00;;;;;;;;5062219;28;61969;-74
2022/08/24 00:43:04;;;;;;;;;2.00;2.00;;;;;;;;5062516;28;61841;-74
2022/08/24 00:45:48;;;;;;;;;2.00;2.00;;;;;;;;5061376;28;61903;-74
2022/08/24 00:48:19;;;;;;;;;2.00;2.00;;;;;;;;5059987;28;62040;-74
2022/08/24 00:51:05;;;;;;;;;2.33;2.33;;;;;;;;5062010;28;62060;-74
2022/08/24 00:53:30;;;;;;;;;2.67;2.67;;;;;;;;5062027;28;61797;-74
2022/08/24 00:55:58;;;;;;;;;4.00;2.67;;;;;;;;5060314;28;64193;-74
2022/08/24 00:58:37;;;;;;;;;3.00;1.67;;;;;;;;5062074;28;61620;-74
2022/08/24 01:01:05;;;;;;;;;1.67;1.67;;;;;;;;5062283;28;62161;-74
2022/08/24 01:03:31;;;;;;;;;1.00;1.00;;;;;;;;5060288;28;61887;-74
2022/08/24 01:05:56;;;;;;;;;2.00;2.00;;;;;;;;5059801;28;63673;-74
2022/08/24 01:08:22;;;;;;;;;2.00;2.00;;;;;;;;5062063;28;61867;-74
2022/08/24 01:10:51;;;;;;;;;3.00;3.00;;;;;;;;5062085;28;61921;-74
2022/08/24 01:13:17;;;;;;;;;2.00;2.00;;;;;;;;5062237;28;61821;-74
2022/08/24 01:15:44;;;;;;;;;2.67;2.67;;;;;;;;5061487;28;61794;-74
2022/08/24 01:21:15;;;;;;;;;4.67;3.00;;;;;;;;5061567;28;61697;-74
2022/08/24 01:23:43;;;;;;;;;3.00;2.33;;;;;;;;5061570;28;62000;-74
2022/08/24 01:26:10;;;;;;;;;2.67;2.67;;;;;;;;5060722;28;61764;-74
2022/08/24 01:28:38;;;;;;;;;7.00;4.00;;;;;;;;5061131;28;61969;-75
2022/08/24 01:31:04;;;;;;;;;2.00;2.00;;;;;;;;5061433;28;61881;-74
2022/08/24 01:33:30;;;;;;;;;2.00;2.00;;;;;;;;5060004;28;61979;-74
2022/08/24 01:36:06;;;;;;;;;2.00;2.00;;;;;;;;5060773;28;62297;-74
2022/08/24 01:38:32;;;;;;;;;3.00;3.00;;;;;;;;5061204;28;61734;-74
2022/08/24 01:40:59;;;;;;;;;3.00;2.00;;;;;;;;5060397;28;61836;-74
2022/08/24 01:43:25;;;;;;;;;3.00;2.00;;;;;;;;5061249;28;61869;-74
2022/08/24 01:45:50;;;;;;;;;3.33;1.67;;;;;;;;5096007;27;64721;-74
2022/08/24 01:48:16;;;;;;;;;4.67;2.67;;;;;;;;5064717;28;61843;-74
2022/08/24 01:50:42;;;;;;;;;1.67;1.67;;;;;;;;5096907;27;61766;-74
2022/08/24 01:53:08;;;;;;;;;4.00;3.00;;;;;;;;5097254;27;62019;-74
2022/08/24 01:55:34;;;;;;;;;3.33;3.00;;;;;;;;5096611;27;63770;-74
2022/08/24 01:57:59;;;;;;;;;2.33;1.33;;;;;;;;5064758;28;61812;-74
2022/08/24 02:00:25;;;;;;;;;2.67;2.00;;;;;;;;5064466;28;61853;-74
2022/08/24 02:02:51;;;;;;;;;4.00;2.67;;;;;;;;5064432;28;61837;-74
2022/08/24 02:05:17;;;;;;;;;3.00;3.00;;;;;;;;5063953;28;61834;-74
2022/08/24 02:07:42;;;;;;;;;4.00;3.00;;;;;;;;5096747;27;61835;-74
2022/08/24 02:10:11;;;;;;;;;3.00;2.67;;;;;;;;5064749;28;61965;-74
2022/08/24 02:12:39;;;;;;;;;2.00;2.00;;;;;;;;5064524;28;61735;-74
2022/08/24 02:15:06;;;;;;;;;2.00;2.00;;;;;;;;5095885;27;63808;-74
2022/08/24 02:17:32;;;;;;;;;2.00;2.00;;;;;;;;5062812;28;61738;-74
2022/08/24 02:19:57;;;;;;;;;2.00;1.67;;;;;;;;5064215;28;61850;-74
2022/08/24 02:22:22;;;;;;;;;3.00;2.00;;;;;;;;5064032;28;61806;-74
2022/08/24 02:24:48;;;;;;;;;2.00;2.00;;;;;;;;5061519;28;63948;-74
2022/08/24 02:27:15;;;;;;;;;1.00;1.00;;;;;;;;5062831;28;61902;-74
2022/08/24 02:29:40;;;;;;;;;3.00;3.00;;;;;;;;5062298;28;61930;-74
2022/08/24 02:32:06;;;;;;;;;3.33;2.00;;;;;;;;5064421;28;61706;-74
2022/08/24 02:34:31;;;;;;;;;2.67;1.67;;;;;;;;5063589;28;62032;-74
2022/08/24 02:36:56;;;;;;;;;3.00;2.00;;;;;;;;5062242;28;61972;-74
2022/08/24 02:39:21;;;;;;;;;5.67;2.00;;;;;;;;5062325;28;61709;-74
2022/08/24 02:41:47;;;;;;;;;3.00;3.00;;;;;;;;5063975;28;61967;-74
2022/08/24 02:44:12;;;;;;;;;2.00;2.00;;;;;;;;5095645;27;64775;-74
2022/08/24 02:46:38;;;;;;;;;2.67;2.67;;;;;;;;5096513;27;61734;-74
2022/08/24 02:49:04;;;;;;;;;3.00;2.00;;;;;;;;5063477;28;61896;-74
2022/08/24 02:51:30;;;;;;;;;2.00;2.00;;;;;;;;5063732;28;61817;-74
2022/08/24 02:53:56;;;;;;;;;2.67;1.67;;;;;;;;5062689;28;61827;-74
2022/08/24 02:56:22;;;;;;;;;1.67;1.67;;;;;;;;5095863;27;61733;-74
2022/08/24 02:58:47;;;;;;;;;1.00;1.00;;;;;;;;5095899;27;61990;-74
2022/08/24 03:01:13;;;;;;;;;2.67;2.67;;;;;;;;5096757;27;61848;-74
2022/08/24 03:03:39;;;;;;;;;1.00;1.00;;;;;;;;5095456;27;63335;-74
2022/08/24 03:06:05;;;;;;;;;2.00;2.00;;;;;;;;5063016;28;61804;-74
2022/08/24 03:08:30;;;;;;;;;3.67;1.67;;;;;;;;5063906;28;61896;-74
2022/08/24 03:10:55;;;;;;;;;1.33;1.33;;;;;;;;5063492;28;61654;-74
2022/08/24 03:13:21;;;;;;;;;3.00;3.00;;;;;;;;5095216;27;65337;-74
2022/08/24 03:15:46;;;;;;;;;4.33;2.00;;;;;;;;5063375;28;61662;-74
2022/08/24 03:18:12;;;;;;;;;3.67;2.33;;;;;;;;5063399;28;61677;-74
2022/08/24 03:20:37;;;;;;;;;1.00;1.00;;;;;;;;5063070;28;61711;-74
2022/08/24 03:23:03;;;;;;;;;2.67;2.67;;;;;;;;5062247;28;61875;-75
2022/08/24 03:25:28;;;;;;;;;5.00;3.00;;;;;;;;5063301;28;62069;-74
2022/08/24 03:27:53;;;;;;;;;2.33;2.33;;;;;;;;5062809;28;61811;-74
2022/08/24 03:30:20;;;;;;;;;3.00;2.00;;;;;;;;5063630;28;61892;-74
2022/08/24 03:32:45;;;;;;;;;5.00;4.00;;;;;;;;5094836;27;64381;-74
2022/08/24 03:35:12;;;;;;;;;4.00;4.00;;;;;;;;5062896;28;61710;-74
2022/08/24 03:37:37;;;;;;;;;3.33;3.33;;;;;;;;5095543;27;62406;-74
2022/08/24 03:40:03;;;;;;;;;4.00;4.00;;;;;;;;5062894;28;61826;-74
2022/08/24 03:42:28;;;;;;;;;4.67;3.67;;;;;;;;5062149;28;61818;-74
2022/08/24 03:44:53;;;;;;;;;3.67;3.67;;;;;;;;5061009;28;61758;-74
2022/08/24 03:47:21;;;;;;;;;4.00;4.00;;;;;;;;5061742;28;61876;-74
2022/08/24 03:49:46;;;;;;;;;4.00;4.00;;;;;;;;5061553;28;61897;-74
2022/08/24 03:52:12;;;;;;;;;4.00;4.00;;;;;;;;5061947;28;61862;-74
2022/08/24 03:54:37;;;;;;;;;2.33;2.33;;;;;;;;5062480;28;62166;-74
2022/08/24 03:57:02;;;;;;;;;3.00;2.00;;;;;;;;5062682;28;61924;-74
2022/08/24 03:59:27;;;;;;;;;5.00;3.00;;;;;;;;5062923;28;61737;-74
2022/08/24 04:01:54;;;;;;;;;3.67;3.00;;;;;;;;5060695;28;63397;-74
2022/08/24 04:04:20;;;;;;;;;3.00;2.00;;;;;;;;5062631;28;61899;-74
2022/08/24 04:06:45;;;;;;;;;3.00;2.00;;;;;;;;5061508;28;62070;-74
2022/08/24 04:09:11;;;;;;;;;3.00;3.00;;;;;;;;5061250;28;62235;-74
2022/08/24 04:11:36;;;;;;;;;3.00;3.00;;;;;;;;5060792;28;64787;-74
2022/08/24 04:14:01;;;;;;;;;3.00;1.67;;;;;;;;5062143;28;62154;-74
2022/08/24 04:16:28;;;;;;;;;2.33;1.67;;;;;;;;5095369;27;61803;-74
2022/08/24 04:18:55;;;;;;;;;3.00;2.33;;;;;;;;5062449;28;62026;-74
2022/08/24 04:21:23;;;;;;;;;3.33;2.00;;;;;;;;5093899;27;65004;-74
2022/08/24 04:23:49;;;;;;;;;4.00;1.67;;;;;;;;5094604;27;61942;-74
2022/08/24 04:26:15;;;;;;;;;2.67;2.67;;;;;;;;5060283;28;61778;-74
2022/08/24 04:28:41;;;;;;;;;2.00;2.00;;;;;;;;5095185;27;61768;-74
2022/08/24 04:31:06;;;;;;;;;3.67;2.67;;;;;;;;5061596;28;61718;-74
2022/08/24 04:33:37;;;;;;;;;2.00;2.00;;;;;;;;5062162;28;61916;-75
2022/08/24 04:36:07;;;;;;;;;3.67;2.67;;;;;;;;5061980;28;61742;-74
2022/08/24 04:38:37;;;;;;;;;2.33;2.00;;;;;;;;5062662;28;61973;-74
2022/08/24 04:41:04;;;;;;;;;4.00;1.33;;;;;;;;5059691;28;64231;-74
2022/08/24 04:43:29;;;;;;;;;2.00;2.00;;;;;;;;5061553;28;61905;-74
2022/08/24 04:45:55;;;;;;;;;2.00;2.00;;;;;;;;5062170;28;61847;-74
2022/08/24 04:48:21;;;;;;;;;4.00;4.00;;;;;;;;5061900;28;62094;-74
2022/08/24 04:50:46;;;;;;;;;4.33;4.00;;;;;;;;5093913;27;63846;-74
2022/08/24 04:53:12;;;;;;;;;5.00;2.00;;;;;;;;5060409;28;61848;-74
2022/08/24 04:55:48;;;;;;;;;4.00;4.00;;;;;;;;5061758;28;61742;-74
2022/08/24 04:58:14;;;;;;;;;3.67;2.33;;;;;;;;5061943;28;61839;-74
2022/08/24 05:00:39;;;;;;;;;3.00;3.00;;;;;;;;5061292;28;62050;-74
2022/08/24 05:03:05;;;;;;;;;3.33;3.00;;;;;;;;5060447;28;62031;-74
2022/08/24 05:05:31;;;;;;;;;2.00;2.00;;;;;;;;5061842;28;61776;-75
2022/08/24 05:07:56;;;;;;;;;1.67;1.67;;;;;;;;5060575;28;61774;-75
2022/08/24 05:10:22;;;;;;;;;3.67;3.00;;;;;;;;5059708;28;63608;-74
2022/08/24 05:12:47;;;;;;;;;3.67;2.00;;;;;;;;5061849;28;61855;-75
2022/08/24 05:15:12;;;;;;;;;3.00;3.00;;;;;;;;5061588;28;61781;-75
2022/08/24 05:17:39;;;;;;;;;3.33;3.00;;;;;;;;5062464;28;61929;-75
2022/08/24 05:20:05;;;;;;;;;3.00;3.00;;;;;;;;5063321;28;63771;-75
2022/08/24 05:22:30;;;;;;;;;3.33;2.33;;;;;;;;5096928;27;62006;-75
2022/08/24 05:24:56;;;;;;;;;1.67;1.67;;;;;;;;5065412;28;61646;-75
2022/08/24 05:27:21;;;;;;;;;4.00;2.67;;;;;;;;5063880;28;61810;-74
2022/08/24 05:29:51;;;;;;;;;2.33;2.33;;;;;;;;5064593;28;62830;-75
2022/08/24 05:32:16;;;;;;;;;5.33;2.67;;;;;;;;5065144;28;61734;-75
2022/08/24 05:34:42;;;;;;;;;3.00;3.00;;;;;;;;5097676;27;61907;-74
2022/08/24 05:37:09;;;;;;;;;3.00;3.00;;;;;;;;5097659;27;62069;-74
2022/08/24 05:39:34;;;;;;;;;3.33;3.33;;;;;;;;5064010;28;61998;-75
2022/08/24 05:41:59;;;;;;;;;6.00;4.33;;;;;;;;5063249;28;61833;-76
2022/08/24 05:44:25;;;;;;;;;4.00;4.00;;;;;;;;5096259;27;61958;-74
2022/08/24 05:46:51;;;;;;;;;4.33;4.33;;;;;;;;5061615;28;62063;-74
2022/08/24 05:49:16;;;;;;;;;2.00;2.00;;;;;;;;5063428;28;61862;-74
2022/08/24 05:51:41;;;;;;;;;2.67;2.67;;;;;;;;5063991;28;61987;-74
2022/08/24 05:54:07;;;;;;;;;2.67;2.67;;;;;;;;5064100;28;62009;-74
2022/08/24 05:56:33;;;;;;;;;5.33;4.00;;;;;;;;5065299;28;62298;-75
2022/08/24 05:58:58;;;;;;;;;2.00;2.00;;;;;;;;5063960;28;61776;-74
2022/08/24 06:01:24;;;;;;;;;4.00;4.00;;;;;;;;5063107;28;61798;-75
2022/08/24 06:03:50;;;;;;;;;4.67;3.00;;;;;;;;5060832;28;61917;-74
2022/08/24 06:06:18;;;;;;;;;3.33;2.33;;;;;;;;5063554;28;62071;-74
2022/08/24 06:08:45;;;;;;;;;7.00;3.33;;;;;;;;5063888;28;61954;-75
2022/08/24 06:11:11;;;;;;;;;5.00;3.00;;;;;;;;5064367;28;61919;-76
2022/08/24 06:13:36;;;;;;;;;6.00;3.67;;;;;;;;5064167;28;61781;-75
2022/08/24 06:16:05;;;;;;;;;3.33;3.33;;;;;;;;5064523;28;61927;-75
2022/08/24 06:18:31;;;;;;;;;2.67;2.33;;;;;;;;5062121;28;63828;-75
2022/08/24 06:20:57;;;;;;;;;7.00;5.00;;;;;;;;5062675;28;61814;-77
2022/08/24 06:23:22;;;;;;;;;3.33;3.33;;;;;;;;5063536;28;61648;-73
2022/08/24 06:28:32;;;;;;;;;3.67;3.33;;;;;;;;5063461;28;61796;-72
2022/08/24 06:31:02;;;;;;;;;5.33;4.00;;;;;;;;5061286;28;61768;-73
2022/08/24 06:33:27;;;;;;;;;5.00;5.00;;;;;;;;5062282;28;61958;-76
2022/08/24 06:35:52;;;;;;;;;8.00;3.67;;;;;;;;5062947;28;61914;-75
2022/08/24 06:38:17;;;;;;;;;11.75;11.00;;;;;;;;5062943;28;61894;-76
2022/08/24 06:40:43;;;;;;;;;7.33;4.33;;;;;;;;5063329;28;61831;-76
2022/08/24 06:43:08;;;;;;;;;4.00;4.00;;;;;;;;5062359;28;61825;-77
2022/08/24 06:45:33;;;;;;;;;4.33;3.33;;;;;;;;5061588;28;61889;-75
2022/08/24 06:47:58;;;;;;;;;3.67;3.67;;;;;;;;5062197;28;61975;-75
2022/08/24 06:50:24;;;;;;;;;7.67;6.00;;;;;;;;5062858;28;62087;-75
2022/08/24 06:52:49;;;;;;;;;3.67;3.67;;;;;;;;5063039;28;61837;-75
2022/08/24 06:55:14;;;;;;;;;3.67;3.67;;;;;;;;5063220;28;62755;-75
2022/08/24 06:57:40;;;;;;;;;3.67;3.00;;;;;;;;5059489;28;62125;-74
2022/08/24 07:00:06;;;;;;;;;4.00;3.00;;;;;;;;5060052;28;61875;-77
2022/08/24 07:02:32;;;;;;;;;8.00;4.00;;;;;;;;5063235;28;62091;-75
2022/08/24 07:04:58;;;;;;;;;4.67;2.00;;;;;;;;5063484;28;61790;-76
2022/08/24 07:07:24;;;;;;;;;5.33;4.00;;;;;;;;5061622;28;63621;-74
2022/08/24 07:09:49;;;;;;;;;3.67;3.67;;;;;;;;5063080;28;61866;-74
2022/08/24 07:12:14;;;;;;;;;4.00;4.00;;;;;;;;5061995;28;61989;-75
2022/08/24 07:14:39;;;;;;;;;4.67;3.33;;;;;;;;5061492;28;62554;-74
2022/08/24 07:17:05;;;;;;;;;5.67;4.67;;;;;;;;5061494;28;61773;-74
2022/08/24 07:19:30;;;;;;;;;7.00;3.67;;;;;;;;5061434;28;62162;-74
2022/08/24 07:21:56;;;;;;;;;4.00;4.00;;;;;;;;5060457;28;61999;-76
2022/08/24 07:24:22;;;;;;;;;3.00;3.00;;;;;;;;5062368;28;61905;-75
2022/08/24 07:26:47;;;;;;;;;6.00;3.67;;;;;;;;5059232;28;62769;-76
2022/08/24 07:29:14;;;;;;;;;5.67;4.67;;;;;;;;5060836;28;61778;-75
2022/08/24 07:31:40;;;;;;;;;5.33;5.00;;;;;;;;5062706;28;61801;-75
2022/08/24 07:34:07;;;;;;;;;4.33;2.67;;;;;;;;5062200;28;61948;-76
2022/08/24 07:36:33;;;;;;;;;6.33;4.00;;;;;;;;5094377;27;64611;-75
2022/08/24 07:38:58;;;;;;;;;3.00;3.00;;;;;;;;5062528;28;62098;-77
2022/08/24 07:41:24;;;;;;;;;5.00;4.00;;;;;;;;5061067;28;61797;-76
2022/08/24 07:43:50;;;;;;;;;5.00;4.33;;;;;;;;5062061;28;62197;-76
2022/08/24 07:46:15;;;;;;;;;2.33;2.33;;;;;;;;5061774;28;62650;-75
2022/08/24 07:48:42;;;;;;;;;5.00;4.00;;;;;;;;5058906;28;62019;-75
2022/08/24 07:51:07;;;;;;;;;5.33;4.00;;;;;;;;5061987;28;61808;-76
2022/08/24 07:53:34;;;;;;;;;5.00;5.00;;;;;;;;5061255;28;62107;-77
2022/08/24 07:55:59;;;;;;;;;3.67;3.00;;;;;;;;5092290;27;63589;-77
2022/08/24 07:58:25;;;;;;;;;3.00;3.00;;;;;;;;5093204;27;62000;-78
2022/08/24 08:00:50;;;;;;;;;3.67;3.67;;;;;;;;5060015;28;61960;-77
2022/08/24 08:03:15;;;;;;;;;6.50;4.50;;;;;;;;5055484;28;61844;-75
2022/08/24 08:05:41;;;;;;;;;7.00;6.00;;;;;;;;5058773;28;63944;-77
2022/08/24 08:08:07;;;;;;;;;5.67;5.67;;;;;;;;5061950;28;62071;-75
2022/08/24 08:10:34;;;;;;;;;3.67;3.00;;;;;;;;5061285;28;62559;-76
2022/08/24 08:13:01;;;;;;;;;5.00;3.67;;;;;;;;5060032;28;63058;-77
2022/08/24 08:15:26;;;;;;;;;5.33;4.67;;;;;;;;5061354;28;61872;-76
2022/08/24 08:17:52;;;;;;;;;4.00;4.00;;;;;;;;5059980;28;61956;-76
2022/08/24 08:20:17;;;;;;;;;5.00;5.00;;;;;;;;5061722;28;61736;-76
2022/08/24 08:25:26;;;;;;;;;3.67;3.67;;;;;;;;5061348;28;61887;-76
2022/08/24 08:27:51;;;;;;;;;4.67;4.67;;;;;;;;5060087;28;61854;-76
2022/08/24 08:30:17;;;;;;;;;4.67;3.67;;;;;;;;5061692;28;61737;-76
2022/08/24 08:32:42;;;;;;;;;5.67;4.00;;;;;;;;5061992;28;61760;-76
2022/08/24 08:35:08;;;;;;;;;4.67;3.67;;;;;;;;5058433;28;65023;-76
2022/08/24 08:37:34;;;;;;;;;5.67;4.67;;;;;;;;5061210;28;61895;-76
2022/08/24 08:39:59;;;;;;;;;3.00;3.00;;;;;;;;5059290;28;62262;-76
2022/08/24 08:42:41;;;;;;;;;3.00;3.00;;;;;;;;5059700;28;62194;-76
2022/08/24 08:45:06;;;;;;;;;4.00;4.00;;;;;;;;5059695;28;62821;-76
2022/08/24 08:47:32;;;;;;;;;5.33;3.33;;;;;;;;5059982;28;61966;-76
2022/08/24 08:50:16;;;;;;;;;4.00;4.00;;;;;;;;5061862;28;61745;-77
2022/08/24 08:52:41;;;;;;;;;5.67;4.67;;;;;;;;5059702;28;61821;-77
2022/08/24 08:55:25;;;;;;;;;5.67;4.67;;;;;;;;5060193;28;61939;-78
2022/08/24 08:58:10;;;;;;;;;6.00;5.00;;;;;;;;5059990;28;61846;-77
2022/08/24 09:00:54;;;;;;;;;6.00;5.00;;;;;;;;5058890;28;61865;-77
2022/08/24 09:03:26;;;;;;;;;5.33;5.33;;;;;;;;5059182;28;61762;-77
2022/08/24 09:06:10;;;;;;;;;10.00;5.00;;;;;;;;5059367;28;63470;-77
2022/08/24 09:08:50;;;;;;;;;5.00;5.00;;;;;;;;5060234;28;61826;-77
2022/08/24 09:11:17;;;;;;;;;4.00;3.67;;;;;;;;5061801;28;61788;-77
2022/08/24 09:14:01;;;;;;;;;3.00;3.00;;;;;;;;5060692;28;62139;-75
2022/08/24 09:17:05;;;;;;;;;4.33;4.33;;;;;;;;5061192;28;62593;-76
2022/08/24 09:19:30;;;;;;;;;4.00;4.00;;;;;;;;4981652;28;62431;-76
2022/08/24 09:22:09;;;;;;;;;3.00;3.00;;;;;;;;4997339;28;62032;-76
2022/08/24 09:24:53;;;;;;;;;3.33;3.33;;;;;;;;4981139;28;62396;-76
2022/08/24 09:27:24;;;;;;;;;4.33;3.33;;;;;;;;4980328;28;64721;-77
2022/08/24 09:29:58;;;;;;;;;4.67;3.67;;;;;;;;4997226;28;62014;-76
2022/08/24 09:32:33;;;;;;;;;3.00;2.00;;;;;;;;4997873;28;61897;-77
2022/08/24 09:35:00;;;;;;;;;4.67;4.00;;;;;;;;4998085;28;62080;-77
2022/08/24 09:37:33;;;;;;;;;3.00;2.00;;;;;;;;4980294;28;63597;-77
2022/08/24 09:40:17;;;;;;;;;4.00;2.33;;;;;;;;4997789;28;61965;-77
2022/08/24 09:42:48;;;;;;;;;2.33;2.33;;;;;;;;4997706;28;62272;-77
2022/08/24 09:45:21;;;;;;;;;4.00;1.00;;;;;;;;4981085;28;62004;-77
2022/08/24 09:48:05;;;;;;;;;1.00;1.00;;;;;;;;4978378;28;65089;-77
2022/08/24 09:50:41;;;;;;;;;1.00;1.00;;;;;;;;5022525;28;62116;-77
2022/08/24 09:53:11;;;;;;;;;1.33;0.67;;;;;;;;5055798;28;62066;-77
2022/08/24 09:55:55;;;;;;;;;1.00;1.00;;;;;;;;5055703;28;61758;-77
2022/08/24 09:58:30;;;;;;;;;2.33;0.67;;;;;;;;5056350;28;63648;-77
2022/08/24 10:01:05;;;;;;;;;3.00;2.00;;;;;;;;5057300;28;61960;-77
2022/08/24 10:03:44;;;;;;;;;1.33;1.33;;;;;;;;5056969;28;61851;-77
2022/08/24 10:06:30;;;;;;;;;2.00;0.33;;;;;;;;5060080;28;61963;-76
2022/08/24 10:09:01;;;;;;;;;1.00;1.00;;;;;;;;5060400;28;64503;-77
2022/08/24 10:11:26;;;;;;;;;2.67;1.00;;;;;;;;5062323;28;61827;-75
2022/08/24 10:14:12;;;;;;;;;2.00;0.33;;;;;;;;5063671;28;62731;-76
2022/08/24 10:16:40;;;;;;;;;0.67;0.67;;;;;;;;5064656;28;61853;-77
2022/08/24 10:19:05;;;;;;;;;2.33;0.67;;;;;;;;5062385;28;62062;-77
2022/08/24 10:22:09;;;;;;;;;1.67;0.67;;;;;;;;5060200;28;61971;-77
2022/08/24 10:24:39;;;;;;;;;0.00;0.00;;;;;;;;4992231;28;62235;-75
2022/08/24 10:27:19;;;;;;;;;0.00;0.00;;;;;;;;4984744;28;62094;-76
2022/08/24 10:29:59;;;;;;;;;1.33;0.00;;;;;;;;5000812;28;61906;-75
2022/08/24 10:32:39;;;;;;;;;0.00;0.00;;;;;;;;5001380;28;61916;-76
2022/08/24 10:35:17;;;;;;;;;0.00;0.00;;;;;;;;5001440;28;62164;-76
2022/08/24 10:37:48;;;;;;;;;1.67;1.00;;;;;;;;5001941;28;62221;-76
2022/08/24 10:40:32;;;;;;;;;0.00;0.00;;;;;;;;5000786;28;61953;-76
2022/08/24 10:43:32;;;;;;;;;0.00;0.00;;;;;;;;4985119;28;62042;-77
2022/08/24 10:46:10;;;;;;;;;0.00;0.00;;;;;;;;5001493;28;61891;-77
2022/08/24 10:48:54;;;;;;;;;3.00;1.00;;;;;;;;4984663;28;62171;-76
2022/08/24 10:51:33;;;;;;;;;2.00;1.00;;;;;;;;5000709;28;61935;-76
2022/08/24 10:53:59;;;;;;;;;1.00;1.00;;;;;;;;4984517;28;61954;-77
2022/08/24 10:56:38;;;;;;;;;1.67;0.00;;;;;;;;5019310;28;62053;-77
2022/08/24 10:59:24;;;;;;;;;1.00;1.00;;;;;;;;5021580;28;62027;-77
2022/08/24 11:02:28;;;;;;;;;0.67;0.67;;;;;;;;5019104;28;61952;-77
2022/08/24 11:05:00;;;;;;;;;1.00;1.00;;;;;;;;5019279;28;61853;-77
2022/08/24 11:07:27;;;;;;;;;0.00;0.00;;;;;;;;5019312;28;61907;-78
2022/08/24 11:09:55;;;;;;;;;1.00;0.67;;;;;;;;5020476;28;61925;-77
2022/08/24 11:12:26;;;;;;;;;0.00;0.00;;;;;;;;5052749;28;63323;-78
2022/08/24 11:14:52;;;;;;;;;0.67;0.00;;;;;;;;5021443;28;62152;-78
2022/08/24 11:17:23;;;;;;;;;1.00;1.00;;;;;;;;5019372;28;61829;-77
2022/08/24 11:19:49;;;;;;;;;0.67;0.67;;;;;;;;5019845;28;61799;-77
2022/08/24 11:22:23;;;;;;;;;0.00;0.00;;;;;;;;5018488;28;64502;-78
2022/08/24 11:24:51;;;;;;;;;1.00;1.00;;;;;;;;5018748;28;62092;-75
2022/08/24 11:27:16;;;;;;;;;1.00;1.00;;;;;;;;5022370;28;62192;-79
2022/08/24 11:29:48;;;;;;;;;1.00;1.00;;;;;;;;5021779;28;61870;-77
2022/08/24 11:32:31;;;;;;;;;1.00;1.00;;;;;;;;5021456;28;63666;-75
2022/08/24 11:35:01;;;;;;;;;1.33;1.33;;;;;;;;5023283;28;61672;-76
2022/08/24 11:37:31;;;;;;;;;1.00;1.00;;;;;;;;5021123;28;62103;-76
2022/08/24 11:39:56;;;;;;;;;0.00;0.00;;;;;;;;5020455;28;62107;-75
2022/08/24 11:42:21;;;;;;;;;1.00;1.00;;;;;;;;5020313;28;63052;-75
2022/08/24 11:45:13;;;;;;;;;0.00;0.00;;;;;;;;5020414;28;61962;-75
2022/08/24 11:47:50;;;;;;;;;2.00;1.00;;;;;;;;5020449;28;61957;-76
2022/08/24 11:50:16;;;;;;;;;0.33;0.33;;;;;;;;5054090;28;61982;-76
2022/08/24 11:52:41;;;;;;;;;1.00;1.00;;;;;;;;5060736;28;61910;-75
2022/08/24 11:55:07;;;;;;;;;0.33;0.33;;;;;;;;5060471;28;61776;-76
2022/08/24 11:57:51;;;;;;;;;1.00;1.00;;;;;;;;5060756;28;61842;-75
2022/08/24 12:00:18;;;;;;;;;1.00;1.00;;;;;;;;5060416;28;62119;-75
2022/08/24 12:02:46;;;;;;;;;1.00;1.00;;;;;;;;5061192;28;62113;-75
2022/08/24 12:05:27;;;;;;;;;0.67;0.00;;;;;;;;5062685;28;61708;-75
2022/08/24 12:08:02;;;;;;;;;1.33;0.33;;;;;;;;5062631;28;61932;-75
2022/08/24 12:10:28;;;;;;;;;0.00;0.00;;;;;;;;5095861;27;62244;-74
2022/08/24 12:13:05;;;;;;;;;0.00;0.00;;;;;;;;5060741;28;64727;-75
2022/08/24 12:15:30;;;;;;;;;0.00;0.00;;;;;;;;5062782;28;61924;-76
2022/08/24 12:18:01;;;;;;;;;1.00;1.00;;;;;;;;5062909;28;62569;-76
2022/08/24 12:20:26;;;;;;;;;0.33;0.33;;;;;;;;5063366;28;62016;-77
2022/08/24 12:22:55;;;;;;;;;0.33;0.33;;;;;;;;5061676;28;63111;-76
2022/08/24 12:28:05;;;;;;;;;1.00;1.00;;;;;;;;5060085;28;61873;-76
2022/08/24 12:30:31;;;;;;;;;0.00;0.00;;;;;;;;5060035;28;61814;-76
2022/08/24 12:32:59;;;;;;;;;0.33;0.33;;;;;;;;5058658;28;63103;-76
2022/08/24 12:35:30;;;;;;;;;0.67;0.67;;;;;;;;5059169;28;62337;-76
2022/08/24 12:38:07;;;;;;;;;0.00;0.00;;;;;;;;5060655;28;61891;-76
2022/08/24 12:40:41;;;;;;;;;0.67;0.67;;;;;;;;5060653;28;61806;-77
2022/08/24 12:43:10;;;;;;;;;1.00;1.00;;;;;;;;5093746;27;64775;-76
2022/08/24 12:45:36;;;;;;;;;0.00;0.00;;;;;;;;5094654;27;61768;-78
2022/08/24 12:48:06;;;;;;;;;0.33;0.00;;;;;;;;5062158;28;61694;-77
2022/08/24 12:50:50;;;;;;;;;0.33;0.33;;;;;;;;5094878;27;61891;-75
2022/08/24 12:53:15;;;;;;;;;0.67;0.67;;;;;;;;5059449;28;64020;-77
2022/08/24 12:55:53;;;;;;;;;0.00;0.00;;;;;;;;5060635;28;62411;-76
2022/08/24 12:58:27;;;;;;;;;2.00;1.00;;;;;;;;5062203;28;61951;-76
2022/08/24 13:00:54;;;;;;;;;0.00;0.00;;;;;;;;5060398;28;61958;-76
2022/08/24 13:03:30;;;;;;;;;0.33;0.33;;;;;;;;5092802;27;64509;-77
2022/08/24 13:05:57;;;;;;;;;2.00;0.00;;;;;;;;5059717;28;62138;-77
2022/08/24 13:08:40;;;;;;;;;1.00;1.00;;;;;;;;5060845;28;61875;-77
2022/08/24 13:11:24;;;;;;;;;0.00;0.00;;;;;;;;5060053;28;62030;-77
2022/08/24 13:14:04;;;;;;;;;0.00;0.00;;;;;;;;5060585;28;61956;-77
2022/08/24 13:16:46;;;;;;;;;2.00;0.67;;;;;;;;5059887;28;61890;-77
2022/08/24 13:19:14;;;;;;;;;2.00;0.33;;;;;;;;5061803;28;61886;-77
2022/08/24 13:21:44;;;;;;;;;0.00;0.00;;;;;;;;5060412;28;62118;-77
2022/08/24 13:24:29;;;;;;;;;0.00;0.00;;;;;;;;5059396;28;63698;-77
2022/08/24 13:27:17;;;;;;;;;0.00;0.00;;;;;;;;5061331;28;61802;-76
2022/08/24 13:29:51;;;;;;;;;0.00;0.00;;;;;;;;5059322;28;61889;-77
2022/08/24 13:32:36;;;;;;;;;0.67;0.67;;;;;;;;5062071;28;61809;-77
2022/08/24 13:35:21;;;;;;;;;0.00;0.00;;;;;;;;5058661;28;63815;-77
2022/08/24 13:38:06;;;;;;;;;0.33;0.33;;;;;;;;5060539;28;61930;-77
2022/08/24 13:40:41;;;;;;;;;0.00;0.00;;;;;;;;5063565;28;61764;-75
2022/08/24 13:43:21;;;;;;;;;0.00;0.00;;;;;;;;5063040;28;61828;-75
2022/08/24 13:45:52;;;;;;;;;0.33;0.33;;;;;;;;5064029;28;62975;-75
2022/08/24 13:48:37;;;;;;;;;0.00;0.00;;;;;;;;5064739;28;61849;-75
2022/08/24 13:51:19;;;;;;;;;0.00;0.00;;;;;;;;5063050;28;61926;-75
2022/08/24 13:53:53;;;;;;;;;0.00;0.00;;;;;;;;5062529;28;62198;-75
2022/08/24 13:56:31;;;;;;;;;1.67;0.00;;;;;;;;5064381;28;62846;-75
2022/08/24 13:59:03;;;;;;;;;0.00;0.00;;;;;;;;5062919;28;61744;-75
2022/08/24 14:01:47;;;;;;;;;0.33;0.00;;;;;;;;5064351;28;61760;-75
2022/08/24 14:04:31;;;;;;;;;0.00;0.00;;;;;;;;5064435;28;62188;-75
2022/08/24 14:07:02;;;;;;;;;0.00;0.00;;;;;;;;5061986;28;64002;-75
2022/08/24 14:09:30;;;;;;;;;0.00;0.00;;;;;;;;5064326;28;61745;-75
2022/08/24 14:12:10;;;;;;;;;0.00;0.00;;;;;;;;5064347;28;61808;-75
2022/08/24 14:14:50;;;;;;;;;0.00;0.00;;;;;;;;5063315;28;62075;-75
2022/08/24 14:17:50;;;;;;;;;0.00;0.00;;;;;;;;5064207;28;61857;-76
2022/08/24 14:20:28;;;;;;;;;0.33;0.33;;;;;;;;4985209;28;62096;-75
2022/08/24 14:23:11;;;;;;;;;0.00;0.00;;;;;;;;5002121;28;61820;-75
2022/08/24 14:25:37;;;;;;;;;0.00;0.00;;;;;;;;4985772;28;62316;-75
2022/08/24 14:28:21;;;;;;;;;0.33;0.33;;;;;;;;4984883;28;63675;-75
2022/08/24 14:30:46;;;;;;;;;0.00;0.00;;;;;;;;4985330;28;61678;-75
2022/08/24 14:33:24;;;;;;;;;0.00;0.00;;;;;;;;5001599;28;61894;-75
2022/08/24 14:35:51;;;;;;;;;0.00;0.00;;;;;;;;5002239;28;61838;-76
2022/08/24 14:38:21;;;;;;;;;0.00;0.00;;;;;;;;4999985;28;62054;-77
2022/08/24 14:41:01;;;;;;;;;0.00;0.00;;;;;;;;4999919;28;62129;-77
2022/08/24 14:43:45;;;;;;;;;0.00;0.00;;;;;;;;4998519;28;62238;-77
2022/08/24 14:46:16;;;;;;;;;0.00;0.00;;;;;;;;4984975;28;61857;-77
2022/08/24 14:48:45;;;;;;;;;0.00;0.00;;;;;;;;4984291;28;63772;-77
2022/08/24 14:51:29;;;;;;;;;0.67;0.00;;;;;;;;5000614;28;61943;-77
2022/08/24 14:54:00;;;;;;;;;0.00;0.00;;;;;;;;4985117;28;61852;-76
2022/08/24 14:56:41;;;;;;;;;0.00;0.00;;;;;;;;5012977;28;61973;-76
2022/08/24 14:59:21;;;;;;;;;0.00;0.00;;;;;;;;5041609;28;63348;-77
2022/08/24 15:01:48;;;;;;;;;0.00;0.00;;;;;;;;5043860;28;61780;-76
2022/08/24 15:04:13;;;;;;;;;0.00;0.00;;;;;;;;5042946;28;61701;-76
2022/08/24 15:06:45;;;;;;;;;0.00;0.00;;;;;;;;5041990;28;61775;-76
2022/08/24 15:09:17;;;;;;;;;0.00;0.00;;;;;;;;5043118;28;62415;-76
2022/08/24 15:11:43;;;;;;;;;0.67;0.00;;;;;;;;5043338;28;61714;-76